createdAt,value
2018-06-12T00:00:17.654Z,100676.42
2018-06-12T00:02:47.358Z,100671.33
2018-06-12T00:05:16.839Z,100675.57
2018-06-12T00:07:46.188Z,100670.58
2018-06-12T00:10:15.522Z,100675.85
2018-06-12T00:12:45.026Z,100671.16
2018-06-12T00:15:14.457Z,100671.89
2018-06-12T00:17:43.903Z,100680.30
2018-06-12T00:20:13.272Z,100676.12
2018-06-12T00:22:42.585Z,100674.53
2018-06-12T00:25:11.935Z,100668.34
2018-06-12T00:27:41.513Z,100664.00
2018-06-12T00:30:10.895Z,100668.80
2018-06-12T00:32:40.279Z,100670.78
2018-06-12T00:35:10.590Z,100678.50
2018-06-12T00:37:39.996Z,100684.78
2018-06-12T00:40:09.361Z,100682.39
2018-06-12T00:42:38.852Z,100681.25
2018-06-12T00:45:08.264Z,100673.64
2018-06-12T00:47:37.871Z,100684.45
2018-06-12T00:50:07.662Z,100678.62
2018-06-12T00:52:37.807Z,100682.27
2018-06-12T00:55:07.163Z,100672.98
2018-06-12T00:57:36.731Z,100677.34
2018-06-12T01:00:06.593Z,100679.27
2018-06-12T01:02:36.100Z,100682.88
2018-06-12T01:05:05.662Z,100671.77
2018-06-12T01:07:35.282Z,100680.06
2018-06-12T01:10:04.959Z,100691.21
2018-06-12T01:12:34.688Z,100689.66
2018-06-12T01:15:04.228Z,100687.77
2018-06-12T01:17:33.406Z,100687.80
2018-06-12T01:20:03.121Z,100683.66
2018-06-12T01:22:32.874Z,100683.09
2018-06-12T01:25:02.439Z,100689.70
2018-06-12T01:27:32.411Z,100689.78
2018-06-12T01:30:02.046Z,100691.75
2018-06-12T01:32:31.459Z,100693.63
2018-06-12T01:35:01.088Z,100702.73
2018-06-12T01:37:30.446Z,100702.37
2018-06-12T01:39:59.910Z,100701.48
2018-06-12T01:42:29.235Z,100710.82
2018-06-12T01:44:58.534Z,100707.20
2018-06-12T01:47:27.795Z,100716.31
2018-06-12T01:49:57.088Z,100711.41
2018-06-12T01:52:26.513Z,100710.30
2018-06-12T01:54:55.827Z,100718.09
2018-06-12T01:57:25.234Z,100716.73
2018-06-12T01:59:54.631Z,100710.98
2018-06-12T02:02:23.949Z,100719.00
2018-06-12T02:04:53.397Z,100714.30
2018-06-12T02:07:22.779Z,100709.36
2018-06-12T02:13:11.311Z,100705.30
2018-06-12T02:15:40.597Z,100695.41
2018-06-12T02:18:09.915Z,100691.63
2018-06-12T02:20:38.989Z,100697.48
2018-06-12T02:23:08.468Z,100692.61
2018-06-12T02:25:37.575Z,100695.74
2018-06-12T02:28:06.684Z,100693.11
2018-06-12T02:30:36.023Z,100690.98
2018-06-12T02:33:05.473Z,100695.85
2018-06-12T02:35:34.761Z,100699.54
2018-06-12T02:38:04.044Z,100694.03
2018-06-12T02:40:33.358Z,100689.79
2018-06-12T02:43:03.219Z,100705.16
2018-06-12T02:45:32.630Z,100696.39
2018-06-12T02:48:02.024Z,100698.58
2018-06-12T02:50:31.440Z,100697.72
2018-06-12T02:53:00.751Z,100691.86
2018-06-12T02:55:30.032Z,100693.57
2018-06-12T02:57:59.360Z,100703.69
2018-06-12T03:00:28.519Z,100702.26
2018-06-12T03:02:57.909Z,100701.31
2018-06-12T03:05:27.210Z,100707.76
2018-06-12T03:07:56.271Z,100709.02
2018-06-12T03:10:25.698Z,100708.77
2018-06-12T03:12:54.951Z,100702.39
2018-06-12T03:15:24.482Z,100700.52
2018-06-12T03:17:53.922Z,100702.02
2018-06-12T03:20:54.511Z,100696.89
2018-06-12T03:23:24.012Z,100698.27
2018-06-12T03:25:59.798Z,100704.77
2018-06-12T03:28:29.615Z,100703.18
2018-06-12T03:30:58.977Z,100699.88
2018-06-12T03:33:28.239Z,100693.43
2018-06-12T03:35:57.603Z,100697.63
2018-06-12T03:38:27.058Z,100696.48
2018-06-12T03:40:56.342Z,100699.81
2018-06-12T03:43:25.636Z,100695.30
2018-06-12T03:45:54.939Z,100690.02
2018-06-12T03:48:24.277Z,100692.16
2018-06-12T03:50:53.562Z,100688.62
2018-06-12T03:53:22.713Z,100683.77
2018-06-12T03:55:52.126Z,100689.33
2018-06-12T03:58:21.687Z,100685.70
2018-06-12T04:00:51.337Z,100690.49
2018-06-12T04:03:20.989Z,100697.77
2018-06-12T04:05:50.408Z,100696.36
2018-06-12T04:08:20.088Z,100706.75
2018-06-12T04:10:49.439Z,100703.27
2018-06-12T04:13:18.966Z,100703.94
2018-06-12T04:15:48.527Z,100708.80
2018-06-12T04:18:18.003Z,100718.87
2018-06-12T04:20:47.561Z,100712.83
2018-06-12T04:23:17.078Z,100712.70
2018-06-12T04:25:46.548Z,100700.70
2018-06-12T04:28:15.845Z,100699.49
2018-06-12T04:30:45.221Z,100704.63
2018-06-12T04:33:14.583Z,100701.09
2018-06-12T04:35:43.920Z,100706.72
2018-06-12T04:38:13.353Z,100710.12
2018-06-12T04:40:42.858Z,100711.52
2018-06-12T04:43:12.054Z,100711.34
2018-06-12T04:45:41.454Z,100711.84
2018-06-12T04:48:10.941Z,100718.66
2018-06-12T04:50:40.247Z,100720.77
2018-06-12T04:53:09.780Z,100720.83
2018-06-12T04:55:39.909Z,100722.08
2018-06-12T05:01:06.678Z,100731.98
2018-06-12T05:03:36.042Z,100726.97
2018-06-12T05:06:05.645Z,100728.84
2018-06-12T05:08:34.988Z,100727.48
2018-06-12T05:11:04.309Z,100733.39
2018-06-12T05:13:33.673Z,100741.75
2018-06-12T05:16:03.036Z,100739.38
2018-06-12T05:18:32.427Z,100744.53
2018-06-12T05:21:01.763Z,100742.48
2018-06-12T05:23:31.146Z,100743.20
2018-06-12T05:26:00.411Z,100739.94
2018-06-12T05:28:29.722Z,100746.45
2018-06-12T05:30:59.056Z,100745.32
2018-06-12T05:33:28.465Z,100748.38
2018-06-12T05:35:57.761Z,100748.80
2018-06-12T05:38:27.198Z,100750.18
2018-06-12T05:40:56.467Z,100755.19
2018-06-12T05:43:25.866Z,100760.66
2018-06-12T05:45:55.332Z,100749.61
2018-06-12T05:48:24.742Z,100752.16
2018-06-12T05:50:54.168Z,100756.95
2018-06-12T05:53:23.545Z,100758.06
2018-06-12T05:55:52.950Z,100759.83
2018-06-12T05:58:22.593Z,100763.92
2018-06-12T06:00:52.101Z,100762.67
2018-06-12T06:03:21.578Z,100766.82
2018-06-12T06:05:51.126Z,100770.21
2018-06-12T06:08:20.630Z,100773.45
2018-06-12T06:10:50.163Z,100766.91
2018-06-12T06:13:19.636Z,100759.50
2018-06-12T06:15:49.151Z,100771.25
2018-06-12T06:18:18.488Z,100771.81
2018-06-12T06:20:47.881Z,100774.18
2018-06-12T06:23:17.533Z,100772.42
2018-06-12T06:25:46.872Z,100779.26
2018-06-12T06:28:16.193Z,100775.91
2018-06-12T06:30:45.566Z,100784.02
2018-06-12T06:33:14.990Z,100788.30
2018-06-12T06:35:44.266Z,100783.31
2018-06-12T06:38:13.605Z,100780.84
2018-06-12T06:40:43.027Z,100784.53
2018-06-12T06:43:12.477Z,100792.75
2018-06-12T06:45:41.943Z,100787.77
2018-06-12T06:48:11.278Z,100786.57
2018-06-12T06:50:40.554Z,100791.38
2018-06-12T06:53:09.935Z,100789.19
2018-06-12T06:55:39.290Z,100791.77
2018-06-12T06:58:08.640Z,100789.30
2018-06-12T07:00:38.159Z,100791.09
2018-06-12T07:03:07.440Z,100787.91
2018-06-12T07:05:36.930Z,100788.90
2018-06-12T07:08:06.223Z,100788.59
2018-06-12T07:10:35.511Z,100783.63
2018-06-12T07:13:04.822Z,100781.91
2018-06-12T07:15:34.100Z,100792.89
2018-06-12T07:18:03.464Z,100791.73
2018-06-12T07:20:43.704Z,100789.20
2018-06-12T07:23:13.014Z,100791.57
2018-06-12T07:25:42.362Z,100789.19
2018-06-12T07:28:11.785Z,100788.73
2018-06-12T07:30:41.218Z,100791.17
2018-06-12T07:33:10.516Z,100795.08
2018-06-12T07:35:39.993Z,100788.11
2018-06-12T07:38:09.342Z,100787.48
2018-06-12T07:40:38.433Z,100798.48
2018-06-12T07:43:07.791Z,100783.97
2018-06-12T07:45:37.107Z,100797.38
2018-06-12T07:48:06.401Z,100801.23
2018-06-12T07:50:35.738Z,100797.09
2018-06-12T07:53:05.023Z,100797.56
2018-06-12T07:55:34.318Z,100801.51
2018-06-12T07:58:03.706Z,100806.41
2018-06-12T08:00:33.002Z,100799.72
2018-06-12T08:03:02.492Z,100802.02
2018-06-12T08:05:31.554Z,100793.30
2018-06-12T08:08:01.132Z,100794.62
2018-06-12T08:10:30.421Z,100790.44
2018-06-12T08:12:59.881Z,100794.78
2018-06-12T08:15:29.170Z,100791.41
2018-06-12T08:17:58.419Z,100795.80
2018-06-12T08:20:27.751Z,100799.87
2018-06-12T08:22:57.207Z,100804.66
2018-06-12T08:25:26.667Z,100810.22
2018-06-12T08:27:56.039Z,100801.08
2018-06-12T08:30:25.490Z,100799.38
2018-06-12T08:32:54.679Z,100802.58
2018-06-12T08:35:24.144Z,100798.04
2018-06-12T08:37:53.467Z,100799.16
2018-06-12T08:40:22.867Z,100807.09
2018-06-12T08:42:52.393Z,100807.30
2018-06-12T08:45:21.835Z,100805.05
2018-06-12T08:47:51.085Z,100807.19
2018-06-12T08:50:20.488Z,100811.66
2018-06-12T08:52:49.828Z,100798.42
2018-06-12T08:55:19.220Z,100799.63
2018-06-12T08:57:48.750Z,100798.95
2018-06-12T09:00:18.317Z,100804.34
2018-06-12T09:02:47.895Z,100807.63
2018-06-12T09:05:17.232Z,100807.73
2018-06-12T09:07:46.511Z,100798.86
2018-06-12T09:10:15.818Z,100814.73
2018-06-12T09:12:45.239Z,100814.88
2018-06-12T09:15:14.652Z,100814.17
2018-06-12T09:17:43.973Z,100811.33
2018-06-12T09:20:13.290Z,100811.03
2018-06-12T09:22:42.702Z,100815.77
2018-06-12T09:25:12.091Z,100820.55
2018-06-12T09:27:46.753Z,100813.67
2018-06-12T09:30:16.582Z,100815.91
2018-06-12T09:32:46.240Z,100811.55
2018-06-12T09:35:15.514Z,100821.30
2018-06-12T09:37:44.817Z,100817.55
2018-06-12T09:40:14.147Z,100816.71
2018-06-12T09:42:43.494Z,100822.61
2018-06-12T09:45:12.917Z,100825.49
2018-06-12T09:47:42.251Z,100829.20
2018-06-12T09:50:11.824Z,100827.48
2018-06-12T09:52:41.123Z,100824.41
2018-06-12T09:55:10.442Z,100831.05
2018-06-12T09:57:39.769Z,100837.79
2018-06-12T10:00:09.072Z,100837.02
2018-06-12T10:02:38.375Z,100843.44
2018-06-12T10:05:07.664Z,100847.86
2018-06-12T10:07:36.945Z,100850.87
2018-06-12T10:10:06.357Z,100844.78
2018-06-12T10:12:35.643Z,100853.50
2018-06-12T10:15:04.934Z,100853.89
2018-06-12T10:17:34.228Z,100851.14
2018-06-12T10:20:03.584Z,100856.89
2018-06-12T10:22:32.904Z,100855.38
2018-06-12T10:25:02.277Z,100854.58
2018-06-12T10:27:31.609Z,100854.32
2018-06-12T10:30:00.945Z,100854.88
2018-06-12T10:32:30.296Z,100851.56
2018-06-12T10:34:59.641Z,100851.27
2018-06-12T10:37:29.101Z,100852.44
2018-06-12T10:39:58.221Z,100855.40
2018-06-12T10:42:27.509Z,100856.27
2018-06-12T10:44:56.821Z,100844.70
2018-06-12T10:47:26.357Z,100841.36
2018-06-12T10:49:55.755Z,100844.34
2018-06-12T10:52:24.993Z,100843.05
2018-06-12T10:54:54.407Z,100846.80
2018-06-12T10:57:23.774Z,100844.36
2018-06-12T10:59:53.217Z,100839.36
2018-06-12T11:02:22.705Z,100842.44
2018-06-12T11:04:52.172Z,100838.95
2018-06-12T11:07:21.583Z,100845.50
2018-06-12T11:09:50.949Z,100843.22
2018-06-12T11:12:20.326Z,100835.31
2018-06-12T11:14:49.725Z,100830.08
2018-06-12T11:17:19.060Z,100837.38
2018-06-12T11:19:49.019Z,100842.36
2018-06-12T11:22:18.549Z,100843.53
2018-06-12T11:24:47.881Z,100847.31
2018-06-12T11:27:17.248Z,100837.23
2018-06-12T11:29:46.766Z,100836.94
2018-06-12T11:32:16.090Z,100832.34
2018-06-12T11:34:45.458Z,100834.54
2018-06-12T11:37:14.791Z,100832.27
2018-06-12T11:39:44.141Z,100831.25
2018-06-12T11:42:13.424Z,100829.55
2018-06-12T11:44:42.840Z,100833.01
2018-06-12T11:47:12.164Z,100834.66
2018-06-12T11:49:41.462Z,100834.06
2018-06-12T11:52:10.571Z,100832.34
2018-06-12T11:54:41.584Z,100835.00
2018-06-12T11:57:11.063Z,100831.27
2018-06-12T11:59:40.545Z,100826.63
2018-06-12T12:02:09.910Z,100828.59
2018-06-12T12:04:39.534Z,100823.08
2018-06-12T12:07:08.879Z,100823.16
2018-06-12T12:09:38.334Z,100825.59
2018-06-12T12:12:07.636Z,100827.05
2018-06-12T12:14:36.745Z,100830.86
2018-06-12T12:17:06.248Z,100821.89
2018-06-12T12:19:35.610Z,100820.89
2018-06-12T12:22:05.009Z,100824.05
2018-06-12T12:24:34.281Z,100822.50
2018-06-12T12:27:03.616Z,100825.34
2018-06-12T12:29:32.955Z,100816.55
2018-06-12T12:32:02.306Z,100822.49
2018-06-12T12:34:31.597Z,100815.53
2018-06-12T12:37:00.967Z,100818.33
2018-06-12T12:39:30.314Z,100813.61
2018-06-12T12:42:01.026Z,100815.20
2018-06-12T12:44:33.860Z,100814.34
2018-06-12T12:47:07.996Z,100812.34
2018-06-12T12:49:37.490Z,100817.82
2018-06-12T12:52:06.961Z,100821.17
2018-06-12T12:54:36.236Z,100817.91
2018-06-12T12:57:05.570Z,100822.16
2018-06-12T12:59:34.966Z,100821.56
2018-06-12T13:02:04.394Z,100822.92
2018-06-12T13:04:34.985Z,100821.91
2018-06-12T13:07:05.305Z,100824.91
2018-06-12T13:09:34.655Z,100824.33
2018-06-12T13:12:09.231Z,100815.63
2018-06-12T13:14:46.898Z,100822.39
2018-06-12T13:17:21.631Z,100825.84
2018-06-12T13:19:57.608Z,100828.11
2018-06-12T13:22:30.926Z,100826.84
2018-06-12T13:25:03.359Z,100830.15
2018-06-12T13:27:32.656Z,100835.17
2018-06-12T13:30:02.177Z,100836.83
2018-06-12T13:32:33.336Z,100830.91
2018-06-12T13:35:02.742Z,100843.00
2018-06-12T13:37:32.267Z,100843.51
2018-06-12T13:40:01.649Z,100845.31
2018-06-12T13:42:30.921Z,100844.39
2018-06-12T13:45:00.621Z,100848.99
2018-06-12T13:47:29.903Z,100851.66
2018-06-12T13:49:59.692Z,100848.81
2018-06-12T13:52:29.182Z,100852.65
2018-06-12T13:54:58.595Z,100851.44
2018-06-12T13:57:28.114Z,100853.27
2018-06-12T13:59:57.442Z,100854.28
2018-06-12T14:02:26.850Z,100859.41
2018-06-12T14:04:56.115Z,100859.68
2018-06-12T14:07:25.455Z,100847.94
2018-06-12T14:09:54.842Z,100851.03
2018-06-12T14:12:24.221Z,100844.74
2018-06-12T14:14:53.669Z,100850.66
2018-06-12T14:17:25.147Z,100849.95
2018-06-12T14:19:54.604Z,100848.89
2018-06-12T14:22:23.860Z,100846.98
2018-06-12T14:24:53.412Z,100848.95
2018-06-12T14:27:22.936Z,100851.05
2018-06-12T14:29:52.337Z,100850.13
2018-06-12T14:32:21.805Z,100852.06
2018-06-12T14:34:51.193Z,100857.43
2018-06-12T14:37:20.689Z,100858.09
2018-06-12T14:39:50.259Z,100857.69
2018-06-12T14:42:19.647Z,100858.09
2018-06-12T14:44:48.843Z,100864.14
2018-06-12T14:47:18.296Z,100863.31
2018-06-12T14:49:47.659Z,100862.16
2018-06-12T14:52:17.124Z,100867.59
2018-06-12T14:54:46.508Z,100874.86
2018-06-12T14:57:15.822Z,100882.30
2018-06-12T14:59:45.186Z,100872.25
2018-06-12T15:02:14.547Z,100875.73
2018-06-12T15:04:43.901Z,100874.25
2018-06-12T15:07:13.192Z,100870.23
2018-06-12T15:09:42.315Z,100870.63
2018-06-12T15:12:11.630Z,100864.95
2018-06-12T15:14:40.950Z,100871.05
2018-06-12T15:17:10.204Z,100866.09
2018-06-12T15:19:41.651Z,100863.38
2018-06-12T15:22:10.943Z,100864.59
2018-06-12T15:24:40.271Z,100861.27
2018-06-12T15:27:09.640Z,100864.63
2018-06-12T15:29:38.974Z,100863.34
2018-06-12T15:32:08.227Z,100855.92
2018-06-12T15:34:37.512Z,100845.80
2018-06-12T15:37:06.953Z,100846.70
2018-06-12T15:39:36.620Z,100839.06
2018-06-12T15:42:05.950Z,100841.97
2018-06-12T15:44:35.443Z,100842.14
2018-06-12T15:47:04.769Z,100841.73
2018-06-12T15:49:33.845Z,100844.64
2018-06-12T15:52:03.163Z,100852.05
2018-06-12T15:54:35.430Z,100852.77
2018-06-12T15:57:04.710Z,100847.92
2018-06-12T15:59:38.420Z,100841.44
2018-06-12T16:02:09.287Z,100846.73
2018-06-12T16:04:38.607Z,100848.58
2018-06-12T16:07:08.965Z,100839.75
2018-06-12T16:09:39.827Z,100844.49
2018-06-12T16:12:09.943Z,100841.13
2018-06-12T16:14:39.765Z,100838.30
2018-06-12T16:17:09.786Z,100832.26
2018-06-12T16:19:40.112Z,100830.88
2018-06-12T16:22:09.547Z,100821.58
2018-06-12T16:24:40.883Z,100826.32
2018-06-12T16:27:12.572Z,100826.22
2018-06-12T16:29:42.449Z,100827.64
2018-06-12T16:32:13.572Z,100825.90
2018-06-12T16:34:42.955Z,100820.66
2018-06-12T16:37:13.986Z,100828.91
2018-06-12T16:39:44.352Z,100829.30
2018-06-12T16:42:15.105Z,100832.42
2018-06-12T16:44:45.077Z,100825.77
2018-06-12T16:47:15.782Z,100824.96
2018-06-12T16:49:47.120Z,100821.01
2018-06-12T16:52:18.171Z,100825.05
2018-06-12T16:54:52.494Z,100821.97
2018-06-12T16:57:26.994Z,100820.55
2018-06-12T16:59:58.390Z,100818.26
2018-06-12T17:02:27.873Z,100809.75
2018-06-12T17:05:02.461Z,100817.95
2018-06-12T17:07:32.972Z,100816.77
2018-06-12T17:10:03.224Z,100809.20
2018-06-12T17:12:36.570Z,100810.44
2018-06-12T17:15:06.209Z,100807.33
2018-06-12T17:17:35.204Z,100814.92
2018-06-12T17:20:04.532Z,100813.25
2018-06-12T17:22:33.986Z,100809.15
2018-06-12T17:25:03.492Z,100818.44
2018-06-12T17:27:32.851Z,100807.34
2018-06-12T17:30:02.199Z,100810.55
2018-06-12T17:32:31.512Z,100805.11
2018-06-12T17:35:00.722Z,100807.42
2018-06-12T17:37:30.039Z,100814.61
2018-06-12T17:39:59.195Z,100813.37
2018-06-12T17:42:28.493Z,100822.55
2018-06-12T17:44:57.927Z,100815.53
2018-06-12T17:47:27.282Z,100817.04
2018-06-12T17:49:56.615Z,100819.17
2018-06-12T17:52:26.521Z,100819.52
2018-06-12T17:54:56.683Z,100829.06
2018-06-12T17:57:26.171Z,100827.51
2018-06-12T17:59:57.516Z,100827.60
2018-06-12T18:02:27.074Z,100828.09
2018-06-12T18:04:56.486Z,100835.03
2018-06-12T18:07:25.909Z,100825.19
2018-06-12T18:09:55.408Z,100838.83
2018-06-12T18:12:26.339Z,100833.27
2018-06-12T18:14:55.851Z,100832.67
2018-06-12T18:17:26.110Z,100823.91
2018-06-12T18:20:02.693Z,100819.16
2018-06-12T18:22:32.786Z,100827.23
2018-06-12T18:25:02.563Z,100833.37
2018-06-12T18:27:54.135Z,100832.42
2018-06-12T18:30:24.091Z,100829.38
2018-06-12T18:32:53.799Z,100837.58
2018-06-12T18:35:23.498Z,100839.55
2018-06-12T18:37:53.914Z,100840.19
2018-06-12T18:40:25.216Z,100842.74
2018-06-12T18:42:55.031Z,100841.13
2018-06-12T18:45:27.789Z,100837.94
2018-06-12T18:47:57.637Z,100844.08
2018-06-12T18:50:26.871Z,100848.09
2018-06-12T18:52:57.223Z,100848.82
2018-06-12T18:55:27.036Z,100849.70
2018-06-12T18:57:56.379Z,100847.98
2018-06-12T19:00:26.037Z,100853.82
2018-06-12T19:02:56.007Z,100856.84
2018-06-12T19:05:26.120Z,100855.41
2018-06-12T19:08:36.008Z,100860.28
2018-06-12T19:11:09.233Z,100861.70
2018-06-12T19:13:43.675Z,100865.02
2018-06-12T19:16:14.639Z,100862.65
2018-06-12T19:18:46.532Z,100866.80
2018-06-12T19:21:19.643Z,100873.26
2018-06-12T19:23:59.541Z,100872.47
2018-06-12T19:26:34.667Z,100870.87
2018-06-12T19:29:05.224Z,100870.42
2018-06-12T19:31:34.600Z,100874.98
2018-06-12T19:34:11.046Z,100882.78
2018-06-12T19:36:41.191Z,100883.81
2018-06-12T19:39:10.915Z,100888.63
2018-06-12T19:41:40.400Z,100884.57
2018-06-12T19:44:09.772Z,100894.64
2018-06-12T19:46:39.388Z,100902.09
2018-06-12T19:49:09.070Z,100914.16
2018-06-12T19:51:38.207Z,100913.84
2018-06-12T19:54:07.797Z,100919.98
2018-06-12T19:56:37.867Z,100933.59
2018-06-12T19:59:08.123Z,100934.66
2018-06-12T20:01:39.314Z,100939.13
2018-06-12T20:04:10.801Z,100935.57
2018-06-12T20:06:41.939Z,100943.40
2018-06-12T20:09:13.323Z,100948.66
2018-06-12T20:11:44.389Z,100943.36
2018-06-12T20:14:14.505Z,100956.34
2018-06-12T20:16:45.453Z,100951.56
2018-06-12T20:19:22.082Z,100958.39
2018-06-12T20:22:00.036Z,100953.52
2018-06-12T20:24:29.633Z,100957.17
2018-06-12T20:27:05.205Z,100961.20
2018-06-12T20:29:39.851Z,100958.08
2018-06-12T20:32:11.405Z,100962.09
2018-06-12T20:34:46.192Z,100970.09
2018-06-12T20:37:17.598Z,100971.45
2018-06-12T20:39:47.130Z,100975.17
2018-06-12T20:42:16.720Z,100976.53
2018-06-12T20:44:46.296Z,100973.69
2018-06-12T20:47:15.754Z,100971.65
2018-06-12T20:49:45.328Z,100965.75
2018-06-12T20:52:18.547Z,100971.65
2018-06-12T20:54:47.896Z,100971.34
2018-06-12T20:57:17.308Z,100975.16
2018-06-12T20:59:48.640Z,100971.55
2018-06-12T21:02:20.642Z,100977.20
2018-06-12T21:04:53.233Z,100979.84
2018-06-12T21:07:27.820Z,100974.57
2018-06-12T21:09:58.675Z,100975.20
2018-06-12T21:12:30.466Z,100976.81
2018-06-12T21:15:00.160Z,100977.43
2018-06-12T21:17:32.020Z,100966.05
2018-06-12T21:20:02.311Z,100971.38
2018-06-12T21:22:31.613Z,100968.30
2018-06-12T21:25:00.874Z,100966.61
2018-06-12T21:27:30.185Z,100962.81
2018-06-12T21:29:59.885Z,100970.16
2018-06-12T21:32:29.418Z,100975.95
2018-06-12T21:34:58.793Z,100972.02
2018-06-12T21:37:28.936Z,100971.84
2018-06-12T21:39:58.388Z,100978.41
2018-06-12T21:42:27.908Z,100972.20
2018-06-12T21:44:57.463Z,100973.92
2018-06-12T21:47:26.937Z,100973.46
2018-06-12T21:49:56.223Z,100975.91
2018-06-12T21:52:25.564Z,100976.81
2018-06-12T21:54:54.786Z,100977.27
2018-06-12T21:57:24.194Z,100979.98
2018-06-12T21:59:53.654Z,100979.52
2018-06-12T22:02:23.121Z,100973.94
2018-06-12T22:04:52.269Z,100968.84
2018-06-12T22:07:21.601Z,100973.00
2018-06-12T22:09:51.493Z,100972.84
2018-06-12T22:12:21.092Z,100975.52
2018-06-12T22:14:50.380Z,100980.41
2018-06-12T22:17:19.766Z,100978.85
2018-06-12T22:19:49.094Z,100979.19
2018-06-12T22:22:18.562Z,100978.31
2018-06-12T22:24:48.116Z,100971.53
2018-06-12T22:27:23.052Z,100971.75
2018-06-12T22:29:53.772Z,100979.86
2018-06-12T22:32:23.354Z,100973.59
2018-06-12T22:34:52.685Z,100978.73
2018-06-12T22:37:22.034Z,100979.81
2018-06-12T22:39:52.434Z,100981.09
2018-06-12T22:42:21.736Z,100980.13
2018-06-12T22:44:52.241Z,100980.20
2018-06-12T22:50:18.433Z,100988.28
2018-06-12T22:52:47.730Z,100989.84
2018-06-12T22:55:17.032Z,100986.20
2018-06-12T22:57:46.601Z,100993.41
2018-06-12T23:00:21.487Z,100997.59
2018-06-12T23:02:50.633Z,100995.91
2018-06-12T23:05:20.094Z,101001.16
2018-06-12T23:07:49.441Z,101005.12
2018-06-12T23:10:23.366Z,101006.36
2018-06-12T23:12:53.233Z,101007.55
2018-06-12T23:15:22.719Z,101014.02
2018-06-12T23:17:53.013Z,101010.33
2018-06-12T23:21:44.311Z,101009.83
2018-06-12T23:24:17.322Z,101013.09
2018-06-12T23:26:46.801Z,101013.88
2018-06-12T23:29:16.114Z,101011.35
2018-06-12T23:31:45.445Z,101013.97
2018-06-12T23:34:14.712Z,101015.42
2018-06-12T23:36:44.181Z,101009.77
2018-06-12T23:39:13.532Z,101008.80
2018-06-12T23:41:42.946Z,101008.44
2018-06-12T23:44:12.351Z,101000.73
2018-06-12T23:46:41.843Z,100998.56
2018-06-12T23:49:11.250Z,100998.68
2018-06-12T23:51:40.646Z,100999.91
2018-06-12T23:54:09.938Z,101001.41
2018-06-12T23:56:39.226Z,100999.87
2018-06-12T23:59:10.486Z,101002.68
